createdAt,value
2023-01-06T00:01:27.433Z,5.20
2023-01-06T00:06:42.384Z,4.73
2023-01-06T00:09:10.088Z,5.97
2023-01-06T00:11:37.298Z,4.43
2023-01-06T00:14:04.899Z,4.53
2023-01-06T00:16:31.738Z,7.00
2023-01-06T00:19:00.023Z,4.97
2023-01-06T00:21:27.243Z,4.40
2023-01-06T00:23:54.543Z,5.35
2023-01-06T00:25:17.391Z,0
2023-01-06T00:29:10.174Z,6.67
2023-01-06T00:31:39.996Z,5.70
2023-01-06T00:34:06.783Z,7.43
2023-01-06T00:36:33.576Z,6.13
2023-01-06T00:39:00.487Z,6.32
2023-01-06T00:41:27.226Z,7.47
2023-01-06T00:43:54.146Z,6.25
2023-01-06T00:46:21.138Z,9.02
2023-01-06T00:49:03.963Z,6.60
2023-01-06T00:51:31.853Z,7.83
2023-01-06T00:54:01.806Z,9.00
2023-01-06T00:56:28.619Z,7.30
2023-01-06T00:58:55.434Z,6.15
2023-01-06T01:01:22.361Z,6.82
2023-01-06T01:03:49.113Z,8.13
2023-01-06T01:06:15.859Z,6.15
2023-01-06T01:08:42.624Z,8.27
2023-01-06T01:11:12.419Z,6.35
2023-01-06T01:13:39.168Z,5.07
2023-01-06T01:16:09.948Z,8.77
2023-01-06T01:18:36.756Z,8.10
2023-01-06T01:21:04.692Z,6.50
2023-01-06T01:23:31.459Z,7.95
2023-01-06T01:25:58.460Z,7.23
2023-01-06T01:28:25.207Z,7.13
2023-01-06T01:30:59.898Z,7.68
2023-01-06T01:33:28.442Z,5.63
2023-01-06T01:35:55.227Z,8.20
2023-01-06T01:38:22.035Z,8.77
2023-01-06T01:40:51.834Z,6.53
2023-01-06T01:45:49.344Z,5.55
2023-01-06T01:48:25.065Z,7.72
2023-01-06T01:50:55.158Z,8.13
2023-01-06T01:53:26.835Z,10.57
2023-01-06T01:55:57.177Z,5.22
2023-01-06T01:58:28.149Z,9.03
2023-01-06T02:00:54.911Z,4.97
2023-01-06T02:06:15.959Z,9.45
2023-01-06T02:08:56.493Z,8.40
2023-01-06T02:11:24.251Z,7.65
2023-01-06T02:17:25.346Z,6.97
2023-01-06T02:23:08.384Z,7.55
2023-01-06T02:26:13.473Z,8.23
2023-01-06T02:28:48.911Z,9.23
2023-01-06T02:31:33.469Z,7.43
2023-01-06T02:34:22.054Z,6.60
2023-01-06T02:37:02.407Z,9.90
2023-01-06T02:39:31.952Z,9.60
2023-01-06T02:42:16.917Z,9.60
2023-01-06T02:44:55.622Z,11.95
2023-01-06T02:47:34.726Z,10.37
2023-01-06T02:50:22.084Z,9.20
2023-01-06T02:53:22.771Z,8.23
2023-01-06T02:55:53.265Z,10.20
2023-01-06T02:58:35.352Z,10.30
2023-01-06T03:01:11.253Z,9.90
2023-01-06T03:03:43.105Z,10.98
2023-01-06T03:06:15.531Z,11.38
2023-01-06T03:11:35.869Z,9.90
2023-01-06T03:14:18.830Z,9.27
2023-01-06T03:16:45.567Z,8.82
2023-01-06T03:19:12.578Z,10.80
2023-01-06T03:21:43.912Z,10.43
2023-01-06T03:24:12.078Z,9.65
2023-01-06T03:26:39.251Z,13.10
2023-01-06T03:29:08.900Z,10.27
2023-01-06T03:31:46.197Z,11.50
2023-01-06T03:34:31.742Z,10.68
2023-01-06T03:37:27.059Z,12.85
2023-01-06T03:40:12.759Z,12.45
2023-01-06T03:42:38.970Z,0
2023-01-06T03:42:49.885Z,11.80
2023-01-06T03:45:25.635Z,14.52
2023-01-06T03:48:18.288Z,14.05
2023-01-06T03:50:56.455Z,14.03
2023-01-06T03:53:45.636Z,15.67
2023-01-06T03:56:18.478Z,12.60
2023-01-06T03:58:50.905Z,12.60
2023-01-06T04:01:17.923Z,14.37
2023-01-06T04:03:51.533Z,12.25
2023-01-06T04:06:18.371Z,11.35
2023-01-06T04:08:45.218Z,11.20
2023-01-06T04:13:58.767Z,12.52
2023-01-06T04:19:12.494Z,13.00
2023-01-06T04:24:25.938Z,13.85
2023-01-06T04:26:52.700Z,17.88
2023-01-06T04:29:19.458Z,15.40
2023-01-06T04:31:46.314Z,15.50
2023-01-06T04:34:13.052Z,14.90
2023-01-06T04:36:39.805Z,14.07
2023-01-06T04:39:06.602Z,12.55
2023-01-06T04:41:33.360Z,10.52
2023-01-06T04:44:00.231Z,10.53
2023-01-06T04:46:27.000Z,12.35
2023-01-06T04:48:53.734Z,14.45
2023-01-06T04:51:20.484Z,12.15
2023-01-06T04:53:47.257Z,11.52
2023-01-06T04:56:14.019Z,11.32
2023-01-06T04:58:40.940Z,12.02
2023-01-06T05:01:12.946Z,12.30
2023-01-06T05:03:40.837Z,14.80
2023-01-06T05:06:10.476Z,17.30
2023-01-06T05:08:41.200Z,12.85
2023-01-06T05:11:20.267Z,14.63
2023-01-06T05:13:47.458Z,12.23
2023-01-06T05:16:18.217Z,14.40
2023-01-06T05:21:12.501Z,18.48
2023-01-06T05:23:39.848Z,18.60
2023-01-06T05:28:54.622Z,22.85
2023-01-06T05:34:09.869Z,20.83
2023-01-06T05:39:23.634Z,20.67
2023-01-06T05:44:37.093Z,25.05
2023-01-06T05:47:03.937Z,26.13
2023-01-06T05:49:30.689Z,30.50
2023-01-06T05:51:57.457Z,26.33
2023-01-06T05:54:24.224Z,22.88
2023-01-06T05:56:51.070Z,25.17
2023-01-06T05:59:17.828Z,24.60
2023-01-06T06:01:44.641Z,22.48
2023-01-06T06:04:12.992Z,24.77
2023-01-06T06:06:39.746Z,26.27
2023-01-06T06:09:06.605Z,24.00
2023-01-06T06:11:33.411Z,29.38
2023-01-06T06:14:00.159Z,30.90
2023-01-06T06:16:28.503Z,32.10
2023-01-06T06:18:57.333Z,37.78
2023-01-06T06:21:26.688Z,31.05
2023-01-06T06:23:54.624Z,37.78
2023-01-06T06:26:21.762Z,43.17
2023-01-06T06:28:48.539Z,44.95
2023-01-06T06:34:14.267Z,30.63
2023-01-06T06:39:27.709Z,26.10
2023-01-06T06:44:41.175Z,23.35
2023-01-06T06:47:07.988Z,26.55
2023-01-06T06:49:34.739Z,22.42
2023-01-06T06:52:01.480Z,24.10
2023-01-06T06:54:28.237Z,28.70
2023-01-06T06:56:55.017Z,29.60
2023-01-06T06:59:21.791Z,28.42
2023-01-06T07:01:48.667Z,33.05
2023-01-06T07:04:15.575Z,30.65
2023-01-06T07:06:42.382Z,34.97
2023-01-06T07:09:09.175Z,37.05
2023-01-06T07:11:35.941Z,31.33
2023-01-06T07:14:02.726Z,33.25
2023-01-06T07:16:29.518Z,33.70
2023-01-06T07:18:56.276Z,37.90
2023-01-06T07:21:23.139Z,37.33
2023-01-06T07:23:49.943Z,33.67
2023-01-06T07:29:03.494Z,39.55
2023-01-06T07:34:16.993Z,39.00
2023-01-06T07:36:43.728Z,37.05
2023-01-06T07:39:10.478Z,38.58
2023-01-06T07:41:37.230Z,36.28
2023-01-06T07:44:04.101Z,38.03
2023-01-06T07:46:30.926Z,40.10
2023-01-06T07:48:57.729Z,40.28
2023-01-06T07:51:24.504Z,40.30
2023-01-06T07:53:51.365Z,41.10
2023-01-06T07:56:18.145Z,41.25
2023-01-06T07:58:44.862Z,39.33
2023-01-06T08:03:59.053Z,39.50
2023-01-06T08:09:12.463Z,40.75
2023-01-06T08:11:39.219Z,38.88
2023-01-06T08:14:05.965Z,44.10
2023-01-06T08:16:32.696Z,40.08
2023-01-06T08:18:59.488Z,37.00
2023-01-06T08:21:26.232Z,39.67
2023-01-06T08:23:52.999Z,41.22
2023-01-06T08:26:19.778Z,39.25
2023-01-06T08:28:46.666Z,39.15
2023-01-06T08:31:18.887Z,41.60
2023-01-06T08:33:46.063Z,39.38
2023-01-06T08:36:15.542Z,37.35
2023-01-06T08:38:42.442Z,35.92
2023-01-06T08:41:09.685Z,33.00
2023-01-06T08:43:37.027Z,34.22
2023-01-06T08:46:06.207Z,38.53
2023-01-06T08:48:33.433Z,35.38
2023-01-06T08:51:08.460Z,28.20
2023-01-06T08:53:35.211Z,30.55
2023-01-06T08:58:53.861Z,28.92
2023-01-06T09:01:23.704Z,30.48
2023-01-06T09:03:50.725Z,30.80
2023-01-06T09:06:18.953Z,31.58
2023-01-06T09:08:46.017Z,28.80
2023-01-06T09:11:13.102Z,28.02
2023-01-06T09:13:39.987Z,25.95
2023-01-06T09:18:55.224Z,30.02
2023-01-06T09:24:13.605Z,29.17
2023-01-06T09:26:40.389Z,21.88
2023-01-06T09:29:07.173Z,28.15
2023-01-06T09:31:34.069Z,25.52
2023-01-06T09:36:47.563Z,22.08
2023-01-06T09:42:15.940Z,21.45
2023-01-06T09:44:48.445Z,21.25
2023-01-06T09:47:18.303Z,20.55
2023-01-06T09:50:20.987Z,23.65
2023-01-06T09:52:55.705Z,19.10
2023-01-06T09:55:36.143Z,19.05
2023-01-06T09:58:09.653Z,17.95
2023-01-06T10:00:44.952Z,19.58
2023-01-06T10:03:31.950Z,15.00
2023-01-06T10:06:18.089Z,18.75
2023-01-06T10:09:03.160Z,22.27
2023-01-06T10:11:54.454Z,16.40
2023-01-06T10:14:36.246Z,14.75
2023-01-06T10:26:32.202Z,13.10
2023-01-06T10:29:09.810Z,12.50
2023-01-06T10:31:39.428Z,14.55
2023-01-06T10:37:10.597Z,8.93
2023-01-06T10:39:39.633Z,10.47
2023-01-06T10:42:06.420Z,10.25
2023-01-06T10:44:33.219Z,11.45
2023-01-06T10:47:00.589Z,10.00
2023-01-06T10:49:27.360Z,8.75
2023-01-06T10:52:00.605Z,9.82
2023-01-06T10:54:29.827Z,10.82
2023-01-06T10:57:02.612Z,13.57
2023-01-06T11:02:22.889Z,10.57
2023-01-06T11:07:47.596Z,9.93
2023-01-06T11:10:26.592Z,8.50
2023-01-06T11:11:30.367Z,0
2023-01-06T11:12:54.438Z,8.20
2023-01-06T11:15:22.742Z,9.02
2023-01-06T11:17:49.599Z,8.95
2023-01-06T11:20:19.308Z,9.50
2023-01-06T11:22:46.139Z,9.68
2023-01-06T11:25:25.829Z,11.43
2023-01-06T11:28:20.497Z,8.88
2023-01-06T11:30:58.702Z,10.50
2023-01-06T11:33:27.928Z,8.43
2023-01-06T11:38:45.502Z,12.43
2023-01-06T11:40:14.224Z,0
2023-01-06T11:41:16.610Z,7.65
2023-01-06T11:43:45.401Z,9.52
2023-01-06T11:46:14.684Z,8.48
2023-01-06T11:48:49.921Z,8.25
2023-01-06T11:51:31.971Z,8.02
2023-01-06T12:03:20.294Z,6.88
2023-01-06T12:05:49.832Z,7.18
2023-01-06T12:08:24.006Z,8.05
2023-01-06T12:11:14.650Z,6.90
2023-01-06T12:13:44.735Z,6.43
2023-01-06T12:14:31.494Z,0
2023-01-06T12:16:32.580Z,8.13
2023-01-06T12:18:59.609Z,9.48
2023-01-06T12:21:31.209Z,9.18
2023-01-06T12:24:02.498Z,7.55
2023-01-06T12:26:31.667Z,9.18
2023-01-06T12:29:00.122Z,8.52
2023-01-06T12:31:48.949Z,7.67
2023-01-06T12:37:42.531Z,5.97
2023-01-06T12:40:34.967Z,5.03
2023-01-06T12:43:18.962Z,5.00
2023-01-06T12:45:58.320Z,4.95
2023-01-06T12:48:33.743Z,6.20
2023-01-06T12:51:43.149Z,6.70
2023-01-06T12:54:18.697Z,5.60
2023-01-06T12:57:02.398Z,4.03
2023-01-06T12:59:50.403Z,4.00
2023-01-06T13:02:45.082Z,4.60
2023-01-06T13:05:36.453Z,3.30
2023-01-06T13:08:17.219Z,3.53
2023-01-06T13:10:48.693Z,3.58
2023-01-06T13:13:40.944Z,6.40
2023-01-06T13:16:26.899Z,3.97
2023-01-06T13:19:21.367Z,3.78
2023-01-06T13:21:52.406Z,5.30
2023-01-06T13:24:27.941Z,5.82
2023-01-06T13:27:12.875Z,4.82
2023-01-06T13:30:05.404Z,4.15
2023-01-06T13:35:40.391Z,4.07
2023-01-06T13:38:37.154Z,4.60
2023-01-06T13:44:01.367Z,4.13
2023-01-06T13:49:17.568Z,4.85
2023-01-06T13:54:40.400Z,6.45
2023-01-06T13:57:22.332Z,5.68
2023-01-06T13:59:49.936Z,7.82
2023-01-06T14:02:37.176Z,6.10
2023-01-06T14:05:22.394Z,4.45
2023-01-06T14:08:03.529Z,6.85
2023-01-06T14:10:30.316Z,6.20
2023-01-06T14:15:54.187Z,8.00
2023-01-06T14:19:00.281Z,6.32
2023-01-06T14:21:30.943Z,7.88
2023-01-06T14:24:08.119Z,6.97
2023-01-06T14:26:53.821Z,9.02
2023-01-06T14:29:42.187Z,6.05
2023-01-06T14:32:11.421Z,6.20
2023-01-06T14:34:43.535Z,7.47
2023-01-06T14:40:03.856Z,7.50
2023-01-06T14:42:38.543Z,7.25
2023-01-06T14:45:18.113Z,8.50
2023-01-06T14:50:47.138Z,5.95
2023-01-06T14:53:27.148Z,15.30
2023-01-06T14:55:55.470Z,36.10
2023-01-06T14:58:30.996Z,10.30
2023-01-06T15:00:58.423Z,7.60
2023-01-06T15:03:27.480Z,8.93
2023-01-06T15:06:29.908Z,10.25
2023-01-06T15:09:12.276Z,12.15
2023-01-06T15:11:42.747Z,8.20
2023-01-06T15:14:27.117Z,9.07
2023-01-06T15:16:55.036Z,7.03
2023-01-06T15:19:22.489Z,7.45
2023-01-06T15:21:52.305Z,9.10
2023-01-06T15:24:19.043Z,8.50
2023-01-06T15:26:45.981Z,8.10
2023-01-06T15:29:18.212Z,7.22
2023-01-06T15:31:47.091Z,9.52
2023-01-06T15:34:36.689Z,8.00
2023-01-06T15:37:07.143Z,7.20
2023-01-06T15:42:26.211Z,9.00
2023-01-06T15:45:00.932Z,8.77
2023-01-06T15:47:47.189Z,7.87
2023-01-06T15:50:20.225Z,7.15
2023-01-06T15:52:48.361Z,8.57
2023-01-06T15:55:36.070Z,9.70
2023-01-06T15:58:14.208Z,9.63
2023-01-06T16:00:47.755Z,9.88
2023-01-06T16:03:29.058Z,6.55
2023-01-06T16:06:13.654Z,8.40
2023-01-06T16:06:13.841Z,0
2023-01-06T16:08:43.997Z,10.90
2023-01-06T16:11:27.846Z,12.85
2023-01-06T16:13:54.577Z,9.20
2023-01-06T16:16:21.329Z,9.45
2023-01-06T16:18:48.272Z,8.88
2023-01-06T16:21:24.554Z,12.63
2023-01-06T16:24:00.161Z,9.98
2023-01-06T16:26:40.215Z,8.13
2023-01-06T16:35:25.318Z,14.77
2023-01-06T16:40:39.364Z,9.32
2023-01-06T16:43:07.928Z,8.48
2023-01-06T16:45:42.785Z,10.57
2023-01-06T16:48:14.416Z,8.38
2023-01-06T16:50:46.649Z,9.95
2023-01-06T16:53:16.958Z,9.82
2023-01-06T16:55:43.826Z,8.45
2023-01-06T16:58:17.405Z,8.82
2023-01-06T17:00:46.437Z,9.82
2023-01-06T17:03:16.162Z,7.70
2023-01-06T17:05:43.384Z,7.47
2023-01-06T17:08:15.839Z,8.45
2023-01-06T17:13:30.963Z,9.48
2023-01-06T17:16:17.669Z,12.95
2023-01-06T17:18:50.215Z,13.90
2023-01-06T17:24:25.076Z,8.43
2023-01-06T17:26:57.787Z,9.25
2023-01-06T17:29:31.981Z,8.25
2023-01-06T17:32:02.017Z,8.35
2023-01-06T17:34:31.519Z,7.38
2023-01-06T17:37:03.615Z,9.27
2023-01-06T17:39:40.347Z,10.65
2023-01-06T17:42:13.287Z,10.40
2023-01-06T17:44:44.917Z,9.02
2023-01-06T17:47:14.689Z,8.52
2023-01-06T17:52:39.460Z,9.23
2023-01-06T17:55:08.951Z,10.70
2023-01-06T17:57:37.586Z,9.00
2023-01-06T18:03:17.937Z,9.50
2023-01-06T18:05:44.683Z,8.57
2023-01-06T18:08:16.003Z,8.60
2023-01-06T18:10:51.368Z,9.70
2023-01-06T18:13:21.878Z,8.82
2023-01-06T18:15:57.089Z,13.90
2023-01-06T18:18:35.429Z,14.70
2023-01-06T18:21:17.038Z,16.40
2023-01-06T18:23:50.032Z,8.60
2023-01-06T18:26:33.102Z,8.63
2023-01-06T18:29:02.950Z,9.02
2023-01-06T18:31:35.806Z,7.82
2023-01-06T18:34:31.838Z,9.52
2023-01-06T18:37:00.309Z,9.20
2023-01-06T18:39:30.584Z,9.63
2023-01-06T18:42:13.210Z,8.98
2023-01-06T18:47:30.214Z,8.65
2023-01-06T18:50:19.422Z,9.65
2023-01-06T18:52:50.333Z,10.98
2023-01-06T18:55:23.174Z,8.20
2023-01-06T18:57:55.516Z,8.70
2023-01-06T19:00:42.863Z,10.17
2023-01-06T19:03:24.616Z,6.88
2023-01-06T19:08:44.644Z,9.05
2023-01-06T19:11:26.677Z,9.37
2023-01-06T19:14:03.723Z,8.93
2023-01-06T19:16:43.129Z,11.75
2023-01-06T19:19:09.888Z,10.80
2023-01-06T19:21:37.898Z,8.50
2023-01-06T19:24:26.552Z,8.35
2023-01-06T19:26:54.525Z,10.38
2023-01-06T19:29:27.407Z,11.13
2023-01-06T19:32:00.152Z,9.07
2023-01-06T19:37:18.261Z,10.75
2023-01-06T19:39:47.756Z,8.95
2023-01-06T19:42:27.124Z,8.70
2023-01-06T19:47:45.087Z,9.48
2023-01-06T19:50:23.185Z,9.52
2023-01-06T19:52:59.270Z,18.02
2023-01-06T19:58:24.609Z,9.67
2023-01-06T20:00:51.728Z,9.25
2023-01-06T20:03:32.531Z,12.30
2023-01-06T20:08:46.409Z,14.57
2023-01-06T20:13:59.902Z,10.23
2023-01-06T20:16:26.708Z,12.07
2023-01-06T20:18:53.491Z,10.93
2023-01-06T20:21:20.315Z,10.45
2023-01-06T20:23:47.135Z,9.57
2023-01-06T20:26:13.941Z,9.93
2023-01-06T20:28:40.689Z,11.65
2023-01-06T20:31:07.437Z,8.65
2023-01-06T20:33:34.313Z,10.50
2023-01-06T20:36:01.039Z,9.77
2023-01-06T20:38:27.795Z,17.07
2023-01-06T20:40:54.534Z,11.80
2023-01-06T20:43:21.334Z,14.80
2023-01-06T20:45:48.112Z,12.85
2023-01-06T20:48:14.900Z,10.82
2023-01-06T20:50:41.698Z,11.50
2023-01-06T20:53:09.453Z,9.60
2023-01-06T20:58:23.139Z,9.83
2023-01-06T21:03:36.581Z,9.60
2023-01-06T21:06:04.339Z,9.07
2023-01-06T21:08:31.203Z,9.55
2023-01-06T21:10:57.968Z,11.07
2023-01-06T21:13:24.725Z,11.63
2023-01-06T21:15:51.495Z,15.48
2023-01-06T21:18:18.235Z,12.27
2023-01-06T21:20:45.047Z,12.15
2023-01-06T21:23:11.832Z,11.65
2023-01-06T21:25:38.637Z,10.10
2023-01-06T21:28:05.547Z,9.18
2023-01-06T21:30:32.332Z,8.13
2023-01-06T21:32:59.315Z,10.73
2023-01-06T21:35:26.119Z,9.55
2023-01-06T21:37:52.876Z,11.75
2023-01-06T21:40:19.632Z,9.98
2023-01-06T21:42:46.397Z,11.35
2023-01-06T21:45:13.220Z,13.98
2023-01-06T21:47:39.920Z,11.10
2023-01-06T21:50:07.014Z,11.38
2023-01-06T21:55:20.713Z,9.05
2023-01-06T22:00:35.107Z,10.43
2023-01-06T22:03:01.957Z,9.15
2023-01-06T22:05:28.917Z,12.57
2023-01-06T22:07:55.686Z,11.38
2023-01-06T22:10:24.511Z,11.63
2023-01-06T22:12:53.583Z,10.95
2023-01-06T22:15:21.784Z,10.35
2023-01-06T22:20:37.285Z,11.68
2023-01-06T22:25:54.691Z,13.50
2023-01-06T22:31:08.204Z,10.85
2023-01-06T22:33:35.037Z,10.15
2023-01-06T22:36:01.901Z,16.90
2023-01-06T22:38:28.691Z,12.13
2023-01-06T22:40:55.420Z,20.10
2023-01-06T22:43:22.949Z,14.87
2023-01-06T22:45:56.765Z,13.65
2023-01-06T22:51:11.066Z,16.38
2023-01-06T22:53:37.989Z,12.57
2023-01-06T22:56:07.784Z,10.80
2023-01-06T22:58:36.894Z,14.60
2023-01-06T23:03:51.988Z,10.43
2023-01-06T23:06:18.917Z,10.43
2023-01-06T23:08:59.210Z,9.98
2023-01-06T23:11:28.199Z,10.52
2023-01-06T23:16:43.445Z,11.82
2023-01-06T23:21:59.600Z,11.80
2023-01-06T23:26:53.147Z,11.70
2023-01-06T23:29:19.902Z,14.05
2023-01-06T23:31:46.714Z,11.77
2023-01-06T23:34:16.491Z,12.60
2023-01-06T23:36:44.218Z,11.40
2023-01-06T23:42:00.635Z,11.60
2023-01-06T23:44:27.386Z,11.65
2023-01-06T23:46:54.133Z,12.40
2023-01-06T23:49:20.926Z,12.75
2023-01-06T23:51:47.667Z,11.80
2023-01-06T23:54:15.155Z,11.82
2023-01-06T23:56:42.176Z,13.13
2023-01-06T23:59:11.549Z,12.27
